sensor_id;sensor_type;location;lat;lon;timestamp;temperature;humidity
16271;DHT22;8243;49.048;8.396;2023-10-13T00:00:10;18.90;59.40
16271;DHT22;8243;49.048;8.396;2023-10-13T00:02:51;18.90;57.00
16271;DHT22;8243;49.048;8.396;2023-10-13T00:05:18;18.90;56.70
16271;DHT22;8243;49.048;8.396;2023-10-13T00:07:44;18.90;55.60
16271;DHT22;8243;49.048;8.396;2023-10-13T00:10:09;18.80;54.80
16271;DHT22;8243;49.048;8.396;2023-10-13T00:12:35;18.80;55.50
16271;DHT22;8243;49.048;8.396;2023-10-13T00:15:04;18.80;54.90
16271;DHT22;8243;49.048;8.396;2023-10-13T00:17:30;18.90;55.50
16271;DHT22;8243;49.048;8.396;2023-10-13T00:19:57;18.90;58.40
16271;DHT22;8243;49.048;8.396;2023-10-13T00:22:25;18.80;59.80
16271;DHT22;8243;49.048;8.396;2023-10-13T00:24:53;18.80;58.40
16271;DHT22;8243;49.048;8.396;2023-10-13T00:27:28;18.70;60.20
16271;DHT22;8243;49.048;8.396;2023-10-13T00:30:05;18.60;60.20
16271;DHT22;8243;49.048;8.396;2023-10-13T00:33:03;18.60;56.50
16271;DHT22;8243;49.048;8.396;2023-10-13T00:35:30;18.60;54.30
16271;DHT22;8243;49.048;8.396;2023-10-13T00:38:07;18.70;52.40
16271;DHT22;8243;49.048;8.396;2023-10-13T00:40:39;18.70;50.70
16271;DHT22;8243;49.048;8.396;2023-10-13T00:43:05;18.80;49.00
16271;DHT22;8243;49.048;8.396;2023-10-13T00:45:47;18.90;48.10
16271;DHT22;8243;49.048;8.396;2023-10-13T00:48:33;18.90;46.30
16271;DHT22;8243;49.048;8.396;2023-10-13T00:51:04;18.90;46.30
16271;DHT22;8243;49.048;8.396;2023-10-13T00:53:32;18.90;45.40
16271;DHT22;8243;49.048;8.396;2023-10-13T00:56:00;18.80;45.30
16271;DHT22;8243;49.048;8.396;2023-10-13T00:58:35;18.80;45.30
16271;DHT22;8243;49.048;8.396;2023-10-13T01:01:03;18.80;44.70
16271;DHT22;8243;49.048;8.396;2023-10-13T01:03:51;18.70;44.20
16271;DHT22;8243;49.048;8.396;2023-10-13T01:06:28;18.70;44.50
16271;DHT22;8243;49.048;8.396;2023-10-13T01:09:12;18.60;44.90
16271;DHT22;8243;49.048;8.396;2023-10-13T01:11:45;18.50;44.70
16271;DHT22;8243;49.048;8.396;2023-10-13T01:14:15;18.50;45.00
16271;DHT22;8243;49.048;8.396;2023-10-13T01:16:43;18.40;45.00
16271;DHT22;8243;49.048;8.396;2023-10-13T01:19:15;18.30;45.80
16271;DHT22;8243;49.048;8.396;2023-10-13T01:21:47;18.30;46.30
16271;DHT22;8243;49.048;8.396;2023-10-13T01:24:13;18.20;46.70
16271;DHT22;8243;49.048;8.396;2023-10-13T01:26:39;18.10;47.10
16271;DHT22;8243;49.048;8.396;2023-10-13T01:29:06;18.20;47.80
16271;DHT22;8243;49.048;8.396;2023-10-13T01:31:44;18.10;48.10
16271;DHT22;8243;49.048;8.396;2023-10-13T01:34:16;18.10;48.20
16271;DHT22;8243;49.048;8.396;2023-10-13T01:36:48;18.10;48.40
16271;DHT22;8243;49.048;8.396;2023-10-13T01:39:19;18.20;48.00
16271;DHT22;8243;49.048;8.396;2023-10-13T01:41:46;18.20;48.00
16271;DHT22;8243;49.048;8.396;2023-10-13T01:44:11;18.30;47.50
16271;DHT22;8243;49.048;8.396;2023-10-13T01:46:40;18.30;47.10
16271;DHT22;8243;49.048;8.396;2023-10-13T01:49:08;18.30;47.00
16271;DHT22;8243;49.048;8.396;2023-10-13T01:51:34;18.30;46.80
16271;DHT22;8243;49.048;8.396;2023-10-13T01:53:59;18.30;47.10
16271;DHT22;8243;49.048;8.396;2023-10-13T01:56:28;18.20;47.70
16271;DHT22;8243;49.048;8.396;2023-10-13T01:58:57;18.10;48.10
16271;DHT22;8243;49.048;8.396;2023-10-13T02:01:22;18.10;48.30
16271;DHT22;8243;49.048;8.396;2023-10-13T02:03:57;18.00;47.80
16271;DHT22;8243;49.048;8.396;2023-10-13T02:06:34;18.00;47.00
16271;DHT22;8243;49.048;8.396;2023-10-13T02:09:10;18.00;46.30
16271;DHT22;8243;49.048;8.396;2023-10-13T02:11:39;18.00;45.50
16271;DHT22;8243;49.048;8.396;2023-10-13T02:14:05;18.00;45.00
16271;DHT22;8243;49.048;8.396;2023-10-13T02:16:30;18.00;44.90
16271;DHT22;8243;49.048;8.396;2023-10-13T02:18:57;17.90;44.40
16271;DHT22;8243;49.048;8.396;2023-10-13T02:21:23;18.00;43.60
16271;DHT22;8243;49.048;8.396;2023-10-13T02:23:57;18.00;43.10
16271;DHT22;8243;49.048;8.396;2023-10-13T02:26:26;17.90;42.70
16271;DHT22;8243;49.048;8.396;2023-10-13T02:29:04;17.90;42.70
16271;DHT22;8243;49.048;8.396;2023-10-13T02:31:35;17.90;42.30
16271;DHT22;8243;49.048;8.396;2023-10-13T02:34:01;17.90;41.90
16271;DHT22;8243;49.048;8.396;2023-10-13T02:36:37;17.90;41.70
16271;DHT22;8243;49.048;8.396;2023-10-13T02:39:12;17.90;41.40
16271;DHT22;8243;49.048;8.396;2023-10-13T02:41:39;17.80;41.50
16271;DHT22;8243;49.048;8.396;2023-10-13T02:44:07;17.90;41.80
16271;DHT22;8243;49.048;8.396;2023-10-13T02:46:34;17.80;41.70
16271;DHT22;8243;49.048;8.396;2023-10-13T02:49:05;17.90;41.40
16271;DHT22;8243;49.048;8.396;2023-10-13T02:51:38;17.90;41.30
16271;DHT22;8243;49.048;8.396;2023-10-13T02:54:07;17.80;41.30
16271;DHT22;8243;49.048;8.396;2023-10-13T02:56:37;17.80;41.40
16271;DHT22;8243;49.048;8.396;2023-10-13T02:59:03;17.80;41.90
16271;DHT22;8243;49.048;8.396;2023-10-13T03:01:33;17.70;42.30
16271;DHT22;8243;49.048;8.396;2023-10-13T03:04:03;17.60;42.60
16271;DHT22;8243;49.048;8.396;2023-10-13T03:06:29;17.50;43.20
16271;DHT22;8243;49.048;8.396;2023-10-13T03:09:03;17.50;43.80
16271;DHT22;8243;49.048;8.396;2023-10-13T03:11:50;17.50;44.10
16271;DHT22;8243;49.048;8.396;2023-10-13T03:16:58;17.40;44.60
16271;DHT22;8243;49.048;8.396;2023-10-13T03:19:46;17.40;44.60
16271;DHT22;8243;49.048;8.396;2023-10-13T03:22:15;17.30;45.50
16271;DHT22;8243;49.048;8.396;2023-10-13T03:24:42;17.20;45.90
16271;DHT22;8243;49.048;8.396;2023-10-13T03:27:12;17.30;45.90
16271;DHT22;8243;49.048;8.396;2023-10-13T03:29:43;17.30;46.00
16271;DHT22;8243;49.048;8.396;2023-10-13T03:32:13;17.30;46.20
16271;DHT22;8243;49.048;8.396;2023-10-13T03:34:43;17.30;46.20
16271;DHT22;8243;49.048;8.396;2023-10-13T03:37:32;17.30;46.00
16271;DHT22;8243;49.048;8.396;2023-10-13T03:40:08;17.30;45.80
16271;DHT22;8243;49.048;8.396;2023-10-13T03:42:48;17.20;45.80
16271;DHT22;8243;49.048;8.396;2023-10-13T03:45:33;17.20;46.00
16271;DHT22;8243;49.048;8.396;2023-10-13T03:48:08;17.20;46.00
16271;DHT22;8243;49.048;8.396;2023-10-13T03:50:59;17.10;46.20
16271;DHT22;8243;49.048;8.396;2023-10-13T03:53:37;17.10;46.80
16271;DHT22;8243;49.048;8.396;2023-10-13T03:56:19;17.00;47.20
16271;DHT22;8243;49.048;8.396;2023-10-13T03:59:07;17.00;48.20
16271;DHT22;8243;49.048;8.396;2023-10-13T04:01:36;16.90;48.60
16271;DHT22;8243;49.048;8.396;2023-10-13T04:04:17;17.00;49.10
16271;DHT22;8243;49.048;8.396;2023-10-13T04:06:55;16.90;49.80
16271;DHT22;8243;49.048;8.396;2023-10-13T04:09:30;16.90;50.00
16271;DHT22;8243;49.048;8.396;2023-10-13T04:11:59;16.80;50.70
16271;DHT22;8243;49.048;8.396;2023-10-13T04:14:32;16.70;51.90
16271;DHT22;8243;49.048;8.396;2023-10-13T04:17:16;16.60;53.40
16271;DHT22;8243;49.048;8.396;2023-10-13T04:19:48;16.50;54.90
16271;DHT22;8243;49.048;8.396;2023-10-13T04:22:39;16.50;55.50
16271;DHT22;8243;49.048;8.396;2023-10-13T04:25:23;16.50;57.50
16271;DHT22;8243;49.048;8.396;2023-10-13T04:28:14;16.50;61.10
16271;DHT22;8243;49.048;8.396;2023-10-13T04:30:49;16.50;64.40
16271;DHT22;8243;49.048;8.396;2023-10-13T04:36:10;16.30;72.60
16271;DHT22;8243;49.048;8.396;2023-10-13T04:38:48;16.20;73.90
16271;DHT22;8243;49.048;8.396;2023-10-13T04:41:38;16.00;76.80
16271;DHT22;8243;49.048;8.396;2023-10-13T04:44:07;16.00;84.00
16271;DHT22;8243;49.048;8.396;2023-10-13T04:46:52;15.90;85.80
16271;DHT22;8243;49.048;8.396;2023-10-13T04:49:21;15.80;88.40
16271;DHT22;8243;49.048;8.396;2023-10-13T04:52:10;15.70;90.30
16271;DHT22;8243;49.048;8.396;2023-10-13T04:54:37;15.70;91.00
16271;DHT22;8243;49.048;8.396;2023-10-13T04:57:25;15.60;91.40
16271;DHT22;8243;49.048;8.396;2023-10-13T05:00:09;15.50;92.00
16271;DHT22;8243;49.048;8.396;2023-10-13T05:02:36;15.50;92.50
16271;DHT22;8243;49.048;8.396;2023-10-13T05:05:09;15.50;94.30
16271;DHT22;8243;49.048;8.396;2023-10-13T05:07:45;15.50;95.10
16271;DHT22;8243;49.048;8.396;2023-10-13T05:10:29;15.50;97.20
16271;DHT22;8243;49.048;8.396;2023-10-13T05:13:14;15.40;98.90
16271;DHT22;8243;49.048;8.396;2023-10-13T05:15:58;15.20;99.90
16271;DHT22;8243;49.048;8.396;2023-10-13T05:18:43;15.10;99.90
16271;DHT22;8243;49.048;8.396;2023-10-13T05:21:28;15.00;99.90
16271;DHT22;8243;49.048;8.396;2023-10-13T05:24:13;14.90;99.90
16271;DHT22;8243;49.048;8.396;2023-10-13T05:26:58;14.90;99.90
16271;DHT22;8243;49.048;8.396;2023-10-13T05:29:44;14.90;99.90
16271;DHT22;8243;49.048;8.396;2023-10-13T05:32:29;14.80;99.90
16271;DHT22;8243;49.048;8.396;2023-10-13T05:35:14;14.80;99.90
16271;DHT22;8243;49.048;8.396;2023-10-13T05:38:01;14.70;99.90
16271;DHT22;8243;49.048;8.396;2023-10-13T05:40:55;14.70;99.90
16271;DHT22;8243;49.048;8.396;2023-10-13T05:43:40;14.60;99.90
16271;DHT22;8243;49.048;8.396;2023-10-13T05:46:24;14.50;99.90
16271;DHT22;8243;49.048;8.396;2023-10-13T05:48:53;14.40;99.90
16271;DHT22;8243;49.048;8.396;2023-10-13T05:54:15;14.50;99.90
16271;DHT22;8243;49.048;8.396;2023-10-13T05:56:51;14.60;99.90
16271;DHT22;8243;49.048;8.396;2023-10-13T05:59:37;14.60;99.90
16271;DHT22;8243;49.048;8.396;2023-10-13T06:02:23;14.50;99.90
16271;DHT22;8243;49.048;8.396;2023-10-13T06:05:09;14.60;99.90
16271;DHT22;8243;49.048;8.396;2023-10-13T06:07:54;14.50;99.90
16271;DHT22;8243;49.048;8.396;2023-10-13T06:10:39;14.70;99.90
16271;DHT22;8243;49.048;8.396;2023-10-13T06:13:25;14.70;99.90
16271;DHT22;8243;49.048;8.396;2023-10-13T06:16:14;14.80;99.90
16271;DHT22;8243;49.048;8.396;2023-10-13T06:18:59;14.80;99.90
16271;DHT22;8243;49.048;8.396;2023-10-13T06:21:44;14.90;99.90
16271;DHT22;8243;49.048;8.396;2023-10-13T06:24:47;15.00;99.90
16271;DHT22;8243;49.048;8.396;2023-10-13T06:27:38;15.10;99.90
16271;DHT22;8243;49.048;8.396;2023-10-13T06:30:22;15.10;99.90
16271;DHT22;8243;49.048;8.396;2023-10-13T06:32:48;15.10;99.90
16271;DHT22;8243;49.048;8.396;2023-10-13T06:35:16;15.60;99.90
16271;DHT22;8243;49.048;8.396;2023-10-13T06:37:48;16.40;99.50
16271;DHT22;8243;49.048;8.396;2023-10-13T06:40:14;16.90;91.80
16271;DHT22;8243;49.048;8.396;2023-10-13T06:42:59;17.30;85.50
16271;DHT22;8243;49.048;8.396;2023-10-13T06:45:38;17.90;79.60
16271;DHT22;8243;49.048;8.396;2023-10-13T06:48:05;18.50;71.50
16271;DHT22;8243;49.048;8.396;2023-10-13T06:50:31;19.10;64.50
16271;DHT22;8243;49.048;8.396;2023-10-13T06:53:23;19.60;57.00
16271;DHT22;8243;49.048;8.396;2023-10-13T06:56:01;19.80;53.70
16271;DHT22;8243;49.048;8.396;2023-10-13T06:58:30;20.30;47.40
16271;DHT22;8243;49.048;8.396;2023-10-13T07:00:56;21.20;41.00
16271;DHT22;8243;49.048;8.396;2023-10-13T07:03:24;21.60;36.80
16271;DHT22;8243;49.048;8.396;2023-10-13T07:05:50;22.10;32.80
16271;DHT22;8243;49.048;8.396;2023-10-13T07:08:17;22.50;28.90
16271;DHT22;8243;49.048;8.396;2023-10-13T07:10:52;22.60;27.00
16271;DHT22;8243;49.048;8.396;2023-10-13T07:13:28;23.10;25.30
16271;DHT22;8243;49.048;8.396;2023-10-13T07:15:54;23.40;22.40
16271;DHT22;8243;49.048;8.396;2023-10-13T07:18:32;23.50;21.60
16271;DHT22;8243;49.048;8.396;2023-10-13T07:21:03;24.00;20.00
16271;DHT22;8243;49.048;8.396;2023-10-13T07:23:35;24.30;18.80
16271;DHT22;8243;49.048;8.396;2023-10-13T07:26:01;24.50;16.60
16271;DHT22;8243;49.048;8.396;2023-10-13T07:28:30;24.40;15.50
16271;DHT22;8243;49.048;8.396;2023-10-13T07:31:04;24.80;15.20
16271;DHT22;8243;49.048;8.396;2023-10-13T07:33:30;24.90;12.80
16271;DHT22;8243;49.048;8.396;2023-10-13T07:36:04;25.20;11.40
16271;DHT22;8243;49.048;8.396;2023-10-13T07:38:51;25.50;10.70
16271;DHT22;8243;49.048;8.396;2023-10-13T07:41:48;26.10;9.90
16271;DHT22;8243;49.048;8.396;2023-10-13T07:44:29;26.50;8.40
16271;DHT22;8243;49.048;8.396;2023-10-13T07:47:03;26.70;8.00
16271;DHT22;8243;49.048;8.396;2023-10-13T07:49:36;26.70;7.30
16271;DHT22;8243;49.048;8.396;2023-10-13T07:52:05;27.00;7.10
16271;DHT22;8243;49.048;8.396;2023-10-13T07:54:50;26.90;6.50
16271;DHT22;8243;49.048;8.396;2023-10-13T07:57:28;27.10;6.10
16271;DHT22;8243;49.048;8.396;2023-10-13T07:59:55;27.30;6.00
16271;DHT22;8243;49.048;8.396;2023-10-13T08:02:36;27.30;5.50
16271;DHT22;8243;49.048;8.396;2023-10-13T08:05:14;27.60;5.50
16271;DHT22;8243;49.048;8.396;2023-10-13T08:07:50;27.80;4.80
16271;DHT22;8243;49.048;8.396;2023-10-13T08:10:17;27.80;4.80
16271;DHT22;8243;49.048;8.396;2023-10-13T08:12:43;27.50;5.30
16271;DHT22;8243;49.048;8.396;2023-10-13T08:15:09;27.40;5.40
16271;DHT22;8243;49.048;8.396;2023-10-13T08:17:47;27.90;4.70
16271;DHT22;8243;49.048;8.396;2023-10-13T08:20:12;27.80;4.00
16271;DHT22;8243;49.048;8.396;2023-10-13T08:22:42;27.90;3.60
16271;DHT22;8243;49.048;8.396;2023-10-13T08:25:12;27.80;3.60
16271;DHT22;8243;49.048;8.396;2023-10-13T08:27:46;27.50;3.70
16271;DHT22;8243;49.048;8.396;2023-10-13T08:30:30;27.40;3.70
16271;DHT22;8243;49.048;8.396;2023-10-13T08:32:56;27.70;3.50
16271;DHT22;8243;49.048;8.396;2023-10-13T08:35:23;27.80;3.60
16271;DHT22;8243;49.048;8.396;2023-10-13T08:38:00;27.70;3.50
16271;DHT22;8243;49.048;8.396;2023-10-13T08:40:29;27.80;3.60
16271;DHT22;8243;49.048;8.396;2023-10-13T08:43:14;28.20;3.80
16271;DHT22;8243;49.048;8.396;2023-10-13T08:45:41;28.30;3.20
16271;DHT22;8243;49.048;8.396;2023-10-13T08:48:31;28.40;3.00
16271;DHT22;8243;49.048;8.396;2023-10-13T08:51:06;27.90;3.10
16271;DHT22;8243;49.048;8.396;2023-10-13T08:53:41;27.70;2.40
16271;DHT22;8243;49.048;8.396;2023-10-13T08:56:23;27.80;2.30
16271;DHT22;8243;49.048;8.396;2023-10-13T08:59:12;28.00;2.30
16271;DHT22;8243;49.048;8.396;2023-10-13T09:01:47;28.10;2.90
16271;DHT22;8243;49.048;8.396;2023-10-13T09:04:36;28.50;2.20
16271;DHT22;8243;49.048;8.396;2023-10-13T09:07:04;28.70;2.10
16271;DHT22;8243;49.048;8.396;2023-10-13T09:14:41;28.90;1.30
16271;DHT22;8243;49.048;8.396;2023-10-13T09:17:12;28.80;1.40
16271;DHT22;8243;49.048;8.396;2023-10-13T09:19:59;29.20;2.00
16271;DHT22;8243;49.048;8.396;2023-10-13T09:22:37;29.10;1.00
16271;DHT22;8243;49.048;8.396;2023-10-13T09:25:05;29.20;1.00
16271;DHT22;8243;49.048;8.396;2023-10-13T09:27:33;29.20;1.00
16271;DHT22;8243;49.048;8.396;2023-10-13T09:30:04;29.10;1.00
16271;DHT22;8243;49.048;8.396;2023-10-13T09:32:44;29.20;1.00
16271;DHT22;8243;49.048;8.396;2023-10-13T09:35:20;29.20;1.00
16271;DHT22;8243;49.048;8.396;2023-10-13T09:37:50;29.00;1.00
16271;DHT22;8243;49.048;8.396;2023-10-13T09:40:16;29.10;1.00
16271;DHT22;8243;49.048;8.396;2023-10-13T09:43:01;29.10;1.00
16271;DHT22;8243;49.048;8.396;2023-10-13T09:45:41;28.70;1.00
16271;DHT22;8243;49.048;8.396;2023-10-13T09:48:24;28.70;1.00
16271;DHT22;8243;49.048;8.396;2023-10-13T09:51:02;28.40;1.00
16271;DHT22;8243;49.048;8.396;2023-10-13T09:53:31;28.10;1.00
16271;DHT22;8243;49.048;8.396;2023-10-13T09:56:06;28.40;1.00
16271;DHT22;8243;49.048;8.396;2023-10-13T09:59:01;28.50;1.00
16271;DHT22;8243;49.048;8.396;2023-10-13T10:01:41;28.70;1.00
16271;DHT22;8243;49.048;8.396;2023-10-13T10:04:17;28.50;1.00
16271;DHT22;8243;49.048;8.396;2023-10-13T10:06:54;28.40;1.00
16271;DHT22;8243;49.048;8.396;2023-10-13T10:09:27;28.40;1.00
16271;DHT22;8243;49.048;8.396;2023-10-13T10:17:46;27.70;1.00
16271;DHT22;8243;49.048;8.396;2023-10-13T10:20:12;27.90;1.00
16271;DHT22;8243;49.048;8.396;2023-10-13T10:22:56;27.90;1.00
16271;DHT22;8243;49.048;8.396;2023-10-13T10:25:32;27.70;1.00
16271;DHT22;8243;49.048;8.396;2023-10-13T10:28:05;27.80;1.00
16271;DHT22;8243;49.048;8.396;2023-10-13T10:30:35;27.70;1.00
16271;DHT22;8243;49.048;8.396;2023-10-13T10:33:04;27.70;1.00
16271;DHT22;8243;49.048;8.396;2023-10-13T10:35:40;27.80;1.00
16271;DHT22;8243;49.048;8.396;2023-10-13T10:40:53;28.00;1.00
16271;DHT22;8243;49.048;8.396;2023-10-13T10:46:14;28.20;1.00
16271;DHT22;8243;49.048;8.396;2023-10-13T10:48:40;28.00;1.00
16271;DHT22;8243;49.048;8.396;2023-10-13T10:51:09;28.10;1.00
16271;DHT22;8243;49.048;8.396;2023-10-13T10:53:48;28.20;1.00
16271;DHT22;8243;49.048;8.396;2023-10-13T10:56:17;28.10;1.00
16271;DHT22;8243;49.048;8.396;2023-10-13T10:58:49;28.00;1.00
16271;DHT22;8243;49.048;8.396;2023-10-13T11:01:24;28.00;1.00
16271;DHT22;8243;49.048;8.396;2023-10-13T11:04:00;28.10;1.00
16271;DHT22;8243;49.048;8.396;2023-10-13T11:06:34;28.30;1.00
16271;DHT22;8243;49.048;8.396;2023-10-13T11:09:04;28.30;1.00
16271;DHT22;8243;49.048;8.396;2023-10-13T11:11:47;28.30;1.00
16271;DHT22;8243;49.048;8.396;2023-10-13T11:14:28;28.50;1.00
16271;DHT22;8243;49.048;8.396;2023-10-13T11:16:55;28.50;1.00
16271;DHT22;8243;49.048;8.396;2023-10-13T11:19:35;28.40;1.00
16271;DHT22;8243;49.048;8.396;2023-10-13T11:22:17;28.40;1.00
16271;DHT22;8243;49.048;8.396;2023-10-13T11:25:02;28.40;1.00
16271;DHT22;8243;49.048;8.396;2023-10-13T11:27:38;28.40;1.00
16271;DHT22;8243;49.048;8.396;2023-10-13T11:30:20;28.40;1.00
16271;DHT22;8243;49.048;8.396;2023-10-13T11:33:09;28.50;1.00
16271;DHT22;8243;49.048;8.396;2023-10-13T11:35:39;28.60;1.00
16271;DHT22;8243;49.048;8.396;2023-10-13T11:38:20;28.50;1.00
16271;DHT22;8243;49.048;8.396;2023-10-13T11:41:04;28.50;1.00
16271;DHT22;8243;49.048;8.396;2023-10-13T11:43:36;28.40;1.00
16271;DHT22;8243;49.048;8.396;2023-10-13T11:46:12;28.50;1.00
16271;DHT22;8243;49.048;8.396;2023-10-13T11:48:41;28.70;1.00
16271;DHT22;8243;49.048;8.396;2023-10-13T11:51:12;28.90;1.00
16271;DHT22;8243;49.048;8.396;2023-10-13T11:53:49;29.10;1.00
16271;DHT22;8243;49.048;8.396;2023-10-13T11:56:18;29.00;1.00
16271;DHT22;8243;49.048;8.396;2023-10-13T11:58:46;28.70;1.00
16271;DHT22;8243;49.048;8.396;2023-10-13T12:01:12;28.60;1.00
16271;DHT22;8243;49.048;8.396;2023-10-13T12:03:41;28.50;1.00
16271;DHT22;8243;49.048;8.396;2023-10-13T12:06:26;28.50;1.00
16271;DHT22;8243;49.048;8.396;2023-10-13T12:09:20;28.40;1.00
16271;DHT22;8243;49.048;8.396;2023-10-13T12:11:48;28.40;1.00
16271;DHT22;8243;49.048;8.396;2023-10-13T12:14:17;28.60;1.00
16271;DHT22;8243;49.048;8.396;2023-10-13T12:19:23;29.00;1.00
16271;DHT22;8243;49.048;8.396;2023-10-13T12:21:51;29.20;1.00
16271;DHT22;8243;49.048;8.396;2023-10-13T12:24:28;29.20;1.00
16271;DHT22;8243;49.048;8.396;2023-10-13T12:27:03;29.20;1.00
16271;DHT22;8243;49.048;8.396;2023-10-13T12:29:47;29.40;1.00
16271;DHT22;8243;49.048;8.396;2023-10-13T12:32:14;29.30;1.00
16271;DHT22;8243;49.048;8.396;2023-10-13T12:34:41;29.40;1.00
16271;DHT22;8243;49.048;8.396;2023-10-13T12:37:26;29.50;1.00
16271;DHT22;8243;49.048;8.396;2023-10-13T12:40:05;29.50;1.00
16271;DHT22;8243;49.048;8.396;2023-10-13T12:42:51;29.40;1.00
16271;DHT22;8243;49.048;8.396;2023-10-13T12:45:46;29.40;1.00
16271;DHT22;8243;49.048;8.396;2023-10-13T12:48:32;29.50;1.00
16271;DHT22;8243;49.048;8.396;2023-10-13T12:51:17;29.40;1.00
16271;DHT22;8243;49.048;8.396;2023-10-13T12:53:58;29.50;1.00
16271;DHT22;8243;49.048;8.396;2023-10-13T12:56:32;29.50;1.00
16271;DHT22;8243;49.048;8.396;2023-10-13T12:58:58;29.40;1.00
16271;DHT22;8243;49.048;8.396;2023-10-13T13:01:25;29.40;1.00
16271;DHT22;8243;49.048;8.396;2023-10-13T13:03:58;29.60;1.00
16271;DHT22;8243;49.048;8.396;2023-10-13T13:06:25;29.50;1.00
16271;DHT22;8243;49.048;8.396;2023-10-13T13:08:52;29.50;1.00
16271;DHT22;8243;49.048;8.396;2023-10-13T13:11:18;29.30;1.00
16271;DHT22;8243;49.048;8.396;2023-10-13T13:13:43;29.10;1.00
16271;DHT22;8243;49.048;8.396;2023-10-13T13:16:15;29.20;1.00
16271;DHT22;8243;49.048;8.396;2023-10-13T13:18:44;29.30;1.00
16271;DHT22;8243;49.048;8.396;2023-10-13T13:21:09;29.40;1.00
16271;DHT22;8243;49.048;8.396;2023-10-13T13:23:38;29.60;1.00
16271;DHT22;8243;49.048;8.396;2023-10-13T13:26:06;29.60;1.00
16271;DHT22;8243;49.048;8.396;2023-10-13T13:31:26;29.50;1.00
16271;DHT22;8243;49.048;8.396;2023-10-13T13:33:57;29.60;1.00
16271;DHT22;8243;49.048;8.396;2023-10-13T13:36:23;29.70;1.00
16271;DHT22;8243;49.048;8.396;2023-10-13T13:38:49;29.70;1.00
16271;DHT22;8243;49.048;8.396;2023-10-13T13:41:17;29.70;1.00
16271;DHT22;8243;49.048;8.396;2023-10-13T13:43:47;29.70;1.00
16271;DHT22;8243;49.048;8.396;2023-10-13T13:46:20;29.70;1.00
16271;DHT22;8243;49.048;8.396;2023-10-13T13:48:54;29.60;1.00
16271;DHT22;8243;49.048;8.396;2023-10-13T13:51:28;29.50;1.00
16271;DHT22;8243;49.048;8.396;2023-10-13T13:53:54;29.30;1.00
16271;DHT22;8243;49.048;8.396;2023-10-13T13:56:21;29.30;1.00
16271;DHT22;8243;49.048;8.396;2023-10-13T13:58:48;29.30;1.00
16271;DHT22;8243;49.048;8.396;2023-10-13T14:01:15;29.20;1.00
16271;DHT22;8243;49.048;8.396;2023-10-13T14:03:42;29.20;1.00
16271;DHT22;8243;49.048;8.396;2023-10-13T14:06:12;29.10;1.00
16271;DHT22;8243;49.048;8.396;2023-10-13T14:08:43;29.10;1.00
16271;DHT22;8243;49.048;8.396;2023-10-13T14:11:10;29.10;1.00
16271;DHT22;8243;49.048;8.396;2023-10-13T14:13:40;29.20;1.00
16271;DHT22;8243;49.048;8.396;2023-10-13T14:16:16;29.20;1.00
16271;DHT22;8243;49.048;8.396;2023-10-13T14:18:48;28.90;1.00
16271;DHT22;8243;49.048;8.396;2023-10-13T14:21:14;28.70;1.00
16271;DHT22;8243;49.048;8.396;2023-10-13T14:23:46;28.60;1.00
16271;DHT22;8243;49.048;8.396;2023-10-13T14:26:16;28.50;1.00
16271;DHT22;8243;49.048;8.396;2023-10-13T14:28:51;28.40;1.00
16271;DHT22;8243;49.048;8.396;2023-10-13T14:31:31;28.30;1.00
16271;DHT22;8243;49.048;8.396;2023-10-13T14:33:57;28.30;1.00
16271;DHT22;8243;49.048;8.396;2023-10-13T14:36:23;28.40;1.00
16271;DHT22;8243;49.048;8.396;2023-10-13T14:38:54;28.50;1.00
16271;DHT22;8243;49.048;8.396;2023-10-13T14:41:20;28.60;1.00
16271;DHT22;8243;49.048;8.396;2023-10-13T14:43:45;28.70;1.00
16271;DHT22;8243;49.048;8.396;2023-10-13T14:46:34;28.80;1.00
16271;DHT22;8243;49.048;8.396;2023-10-13T14:49:06;28.80;1.00
16271;DHT22;8243;49.048;8.396;2023-10-13T14:51:31;28.80;1.00
16271;DHT22;8243;49.048;8.396;2023-10-13T14:53:58;28.80;1.00
16271;DHT22;8243;49.048;8.396;2023-10-13T14:56:29;28.80;1.00
16271;DHT22;8243;49.048;8.396;2023-10-13T14:58:55;28.80;1.00
16271;DHT22;8243;49.048;8.396;2023-10-13T15:01:22;28.80;1.00
16271;DHT22;8243;49.048;8.396;2023-10-13T15:03:53;28.80;1.00
16271;DHT22;8243;49.048;8.396;2023-10-13T15:06:26;28.80;1.00
16271;DHT22;8243;49.048;8.396;2023-10-13T15:08:59;28.80;1.00
16271;DHT22;8243;49.048;8.396;2023-10-13T15:11:26;28.80;1.00
16271;DHT22;8243;49.048;8.396;2023-10-13T15:13:56;28.70;1.00
16271;DHT22;8243;49.048;8.396;2023-10-13T15:16:26;28.60;1.00
16271;DHT22;8243;49.048;8.396;2023-10-13T15:18:53;28.60;1.00
16271;DHT22;8243;49.048;8.396;2023-10-13T15:21:29;28.60;1.00
16271;DHT22;8243;49.048;8.396;2023-10-13T15:24:03;28.60;1.00
16271;DHT22;8243;49.048;8.396;2023-10-13T15:26:40;28.40;1.00
16271;DHT22;8243;49.048;8.396;2023-10-13T15:29:19;28.30;1.00
16271;DHT22;8243;49.048;8.396;2023-10-13T15:31:52;28.20;1.00
16271;DHT22;8243;49.048;8.396;2023-10-13T15:34:24;28.20;1.00
16271;DHT22;8243;49.048;8.396;2023-10-13T15:36:55;28.10;1.00
16271;DHT22;8243;49.048;8.396;2023-10-13T15:39:22;28.00;1.00
16271;DHT22;8243;49.048;8.396;2023-10-13T15:41:55;27.90;1.00
16271;DHT22;8243;49.048;8.396;2023-10-13T15:44:28;27.80;1.00
16271;DHT22;8243;49.048;8.396;2023-10-13T15:46:57;27.80;1.00
16271;DHT22;8243;49.048;8.396;2023-10-13T15:49:24;27.70;1.00
16271;DHT22;8243;49.048;8.396;2023-10-13T15:51:53;27.60;1.00
16271;DHT22;8243;49.048;8.396;2023-10-13T15:54:22;27.50;1.00
16271;DHT22;8243;49.048;8.396;2023-10-13T15:56:50;27.40;1.00
16271;DHT22;8243;49.048;8.396;2023-10-13T15:59:19;27.30;1.00
16271;DHT22;8243;49.048;8.396;2023-10-13T16:01:45;27.20;1.00
16271;DHT22;8243;49.048;8.396;2023-10-13T16:04:14;27.10;1.00
16271;DHT22;8243;49.048;8.396;2023-10-13T16:06:41;27.00;1.00
16271;DHT22;8243;49.048;8.396;2023-10-13T16:09:07;26.90;1.00
16271;DHT22;8243;49.048;8.396;2023-10-13T16:11:42;26.70;1.00
16271;DHT22;8243;49.048;8.396;2023-10-13T16:14:09;26.60;1.00
16271;DHT22;8243;49.048;8.396;2023-10-13T16:16:45;26.40;1.00
16271;DHT22;8243;49.048;8.396;2023-10-13T16:19:13;26.30;1.00
16271;DHT22;8243;49.048;8.396;2023-10-13T16:21:38;26.10;1.00
16271;DHT22;8243;49.048;8.396;2023-10-13T16:24:07;26.00;1.00
16271;DHT22;8243;49.048;8.396;2023-10-13T16:26:46;25.80;1.00
16271;DHT22;8243;49.048;8.396;2023-10-13T16:29:17;25.80;1.00
16271;DHT22;8243;49.048;8.396;2023-10-13T16:31:43;25.60;1.00
16271;DHT22;8243;49.048;8.396;2023-10-13T16:34:16;25.50;1.00
16271;DHT22;8243;49.048;8.396;2023-10-13T16:36:45;25.40;1.00
16271;DHT22;8243;49.048;8.396;2023-10-13T16:39:12;25.20;1.00
16271;DHT22;8243;49.048;8.396;2023-10-13T16:41:41;25.10;1.00
16271;DHT22;8243;49.048;8.396;2023-10-13T16:44:10;24.90;1.00
16271;DHT22;8243;49.048;8.396;2023-10-13T16:46:37;24.70;1.00
16271;DHT22;8243;49.048;8.396;2023-10-13T16:49:03;24.50;1.00
16271;DHT22;8243;49.048;8.396;2023-10-13T16:51:28;24.30;1.00
16271;DHT22;8243;49.048;8.396;2023-10-13T16:53:56;24.20;1.40
16271;DHT22;8243;49.048;8.396;2023-10-13T16:56:24;24.20;1.40
16271;DHT22;8243;49.048;8.396;2023-10-13T16:58:49;24.00;1.90
16271;DHT22;8243;49.048;8.396;2023-10-13T17:01:19;23.90;2.60
16271;DHT22;8243;49.048;8.396;2023-10-13T17:03:51;23.70;2.70
16271;DHT22;8243;49.048;8.396;2023-10-13T17:06:17;23.50;2.80